Time;durP1;ratioP1;P1;durP2;ratioP2;P2;SDS_P1;SDS_P2;PMS_P1;PMS_P2;Temp;Humidity;BMP_temperature;BMP_pressure;BME280_temperature;BME280_humidity;BME280_pressure;Samples;Min_cycle;Max_cycle;Signal;HPM_P1;HPM_P2
2023/02/09 00:00:11;;;;;;;15.85;7.35;;;;;;;;;;5075258;28;20098;-74
2023/02/09 00:02:38;;;;;;;17.30;8.10;;;;;;;;;;5075983;28;20044;-76
2023/02/09 00:05:06;;;;;;;19.55;7.65;;;;;;;;;;5072828;28;20051;-75
2023/02/09 00:07:32;;;;;;;17.15;7.80;;;;;;;;;;5069760;22;20375;-77
2023/02/09 00:09:59;;;;;;;16.67;6.97;;;;;;;;;;5038549;28;20464;-78
2023/02/09 00:15:08;;;;;;;16.73;7.68;;;;;;;;;;5016311;28;20054;-77
2023/02/09 00:17:37;;;;;;;18.92;7.70;;;;;;;;;;5043813;28;20052;-78
2023/02/09 00:20:12;;;;;;;17.23;7.07;;;;;;;;;;5040695;28;20053;-77
2023/02/09 00:22:39;;;;;;;21.00;8.23;;;;;;;;;;5039456;28;20045;-77
2023/02/09 00:25:06;;;;;;;20.88;8.93;;;;;;;;;;5040971;28;20084;-77
2023/02/09 00:27:36;;;;;;;25.00;8.27;;;;;;;;;;5037128;28;20049;-77
2023/02/09 00:30:11;;;;;;;19.40;7.80;;;;;;;;;;5039716;28;20140;-79
2023/02/09 00:32:37;;;;;;;18.02;8.05;;;;;;;;;;5037854;28;20042;-77
2023/02/09 00:35:32;;;;;;;15.82;8.10;;;;;;;;;;5035483;28;20050;-77
2023/02/09 00:37:59;;;;;;;16.38;7.43;;;;;;;;;;5009405;28;20096;-80
2023/02/09 00:40:26;;;;;;;19.55;7.80;;;;;;;;;;5018558;28;20532;-78
2023/02/09 00:42:53;;;;;;;15.90;7.13;;;;;;;;;;5029207;28;20393;-78
2023/02/09 00:45:22;;;;;;;15.57;7.28;;;;;;;;;;5039351;28;20045;-79
2023/02/09 00:47:49;;;;;;;18.48;7.88;;;;;;;;;;5041458;28;20546;-78
2023/02/09 00:50:18;;;;;;;17.98;8.38;;;;;;;;;;5041798;28;20068;-80
2023/02/09 00:52:45;;;;;;;15.30;7.82;;;;;;;;;;5038245;28;20489;-78
2023/02/09 00:55:11;;;;;;;18.83;8.20;;;;;;;;;;5042315;28;20065;-78
2023/02/09 00:57:38;;;;;;;17.20;8.00;;;;;;;;;;5037712;28;20085;-77
2023/02/09 01:00:10;;;;;;;20.73;7.72;;;;;;;;;;5036856;28;20116;-77
2023/02/09 01:02:43;;;;;;;19.85;7.88;;;;;;;;;;5036570;28;20084;-77
2023/02/09 01:05:10;;;;;;;17.60;8.05;;;;;;;;;;5033337;28;20137;-76
2023/02/09 01:07:37;;;;;;;20.52;7.60;;;;;;;;;;5031101;28;20127;-79
2023/02/09 01:10:04;;;;;;;17.98;8.32;;;;;;;;;;5038142;28;20069;-77
2023/02/09 01:12:31;;;;;;;19.33;8.30;;;;;;;;;;5036537;28;20042;-78
2023/02/09 01:15:00;;;;;;;17.33;7.55;;;;;;;;;;5028166;28;20073;-77
2023/02/09 01:17:27;;;;;;;19.38;9.07;;;;;;;;;;5035940;28;20496;-76
2023/02/09 01:19:56;;;;;;;19.00;8.25;;;;;;;;;;5035682;28;20076;-78
2023/02/09 01:22:23;;;;;;;21.45;9.25;;;;;;;;;;5035412;28;20053;-78
2023/02/09 01:24:49;;;;;;;20.85;10.32;;;;;;;;;;5036743;28;20111;-77
2023/02/09 01:27:16;;;;;;;20.13;8.35;;;;;;;;;;5035093;28;20053;-76
2023/02/09 01:29:43;;;;;;;17.35;8.63;;;;;;;;;;5034891;28;20045;-77
2023/02/09 01:32:10;;;;;;;17.98;8.57;;;;;;;;;;5035443;28;20076;-78
2023/02/09 01:34:37;;;;;;;17.55;7.60;;;;;;;;;;5035919;28;20107;-78
2023/02/09 01:37:05;;;;;;;17.92;8.32;;;;;;;;;;5036142;28;20560;-79
2023/02/09 01:39:32;;;;;;;16.83;8.23;;;;;;;;;;5039622;28;20116;-78
2023/02/09 01:41:59;;;;;;;16.33;7.47;;;;;;;;;;5036454;28;20109;-79
2023/02/09 01:45:14;;;;;;;18.05;8.65;;;;;;;;;;5034561;28;20555;-77
2023/02/09 01:47:51;;;;;;;14.13;6.57;;;;;;;;;;4980805;28;20565;-76
2023/02/09 01:50:18;;;;;;;16.60;6.97;;;;;;;;;;5034816;28;20080;-77
2023/02/09 01:52:48;;;;;;;15.32;7.50;;;;;;;;;;5033393;28;20125;-78
2023/02/09 01:55:19;;;;;;;17.95;8.50;;;;;;;;;;5036539;28;20415;-78
2023/02/09 01:57:48;;;;;;;19.10;7.80;;;;;;;;;;5037446;28;20045;-79
2023/02/09 02:00:18;;;;;;;14.73;6.43;;;;;;;;;;5034318;28;20483;-77
2023/02/09 02:02:51;;;;;;;20.95;8.20;;;;;;;;;;5033390;28;20075;-77
2023/02/09 02:05:19;;;;;;;15.57;7.38;;;;;;;;;;5014523;28;20062;-78
2023/02/09 02:07:54;;;;;;;17.80;7.32;;;;;;;;;;5029866;28;20076;-77
2023/02/09 02:10:21;;;;;;;17.20;8.25;;;;;;;;;;5034389;28;20554;-77
2023/02/09 02:12:48;;;;;;;15.95;6.50;;;;;;;;;;5033810;28;20065;-77
2023/02/09 02:15:16;;;;;;;16.17;7.05;;;;;;;;;;5035956;28;20132;-79
2023/02/09 02:18:03;;;;;;;18.55;8.27;;;;;;;;;;5029947;28;20111;-78
2023/02/09 02:20:56;;;;;;;16.85;7.88;;;;;;;;;;5036379;28;20077;-79
2023/02/09 02:23:33;;;;;;;15.73;7.70;;;;;;;;;;5027977;28;20068;-79
2023/02/09 02:26:26;;;;;;;17.83;7.55;;;;;;;;;;5037344;28;20119;-82
2023/02/09 02:29:24;;;;;;;16.02;6.80;;;;;;;;;;5018714;28;20069;-79
2023/02/09 02:32:10;;;;;;;18.23;6.47;;;;;;;;;;5030255;28;20566;-79
2023/02/09 02:34:45;;;;;;;16.40;7.68;;;;;;;;;;5036804;28;20045;-78
2023/02/09 02:37:22;;;;;;;20.50;8.25;;;;;;;;;;5037624;28;20052;-78
2023/02/09 02:39:57;;;;;;;18.38;7.38;;;;;;;;;;5034172;28;20944;-78
2023/02/09 02:42:50;;;;;;;15.80;6.95;;;;;;;;;;5034450;28;20060;-77
2023/02/09 02:45:25;;;;;;;15.50;6.95;;;;;;;;;;5034103;28;20049;-77
2023/02/09 02:48:00;;;;;;;18.15;7.72;;;;;;;;;;5034037;28;20528;-78
2023/02/09 02:50:30;;;;;;;17.52;7.20;;;;;;;;;;5035084;28;20145;-77
2023/02/09 02:53:01;;;;;;;13.93;7.15;;;;;;;;;;5033746;28;20408;-78
2023/02/09 02:55:31;;;;;;;18.83;7.45;;;;;;;;;;5034046;28;20042;-77
2023/02/09 02:58:01;;;;;;;14.65;6.93;;;;;;;;;;5033301;28;20056;-78
2023/02/09 03:00:32;;;;;;;16.45;7.50;;;;;;;;;;5033934;28;20183;-78
2023/02/09 03:03:06;;;;;;;16.98;6.95;;;;;;;;;;5032511;28;20045;-76
2023/02/09 03:05:33;;;;;;;13.57;6.68;;;;;;;;;;5032624;28;20047;-77
2023/02/09 03:07:59;;;;;;;18.77;8.73;;;;;;;;;;5032367;28;20081;-79
2023/02/09 03:10:28;;;;;;;16.58;8.40;;;;;;;;;;5032550;28;20129;-77
2023/02/09 03:13:15;;;;;;;16.30;7.82;;;;;;;;;;5012137;28;20081;-75
2023/02/09 03:15:53;;;;;;;14.88;7.10;;;;;;;;;;5013014;28;20046;-78
2023/02/09 03:18:29;;;;;;;19.23;7.85;;;;;;;;;;5016171;28;20098;-78
2023/02/09 03:20:59;;;;;;;17.33;7.70;;;;;;;;;;5032314;28;20073;-78
2023/02/09 03:23:33;;;;;;;16.10;7.22;;;;;;;;;;5032329;28;20084;-78
2023/02/09 03:26:22;;;;;;;17.52;7.25;;;;;;;;;;5032894;28;20057;-77
2023/02/09 03:28:54;;;;;;;19.70;7.95;;;;;;;;;;5036764;28;20053;-78
2023/02/09 03:31:22;;;;;;;15.63;6.90;;;;;;;;;;5049642;28;20034;-78
2023/02/09 03:33:50;;;;;;;16.02;7.93;;;;;;;;;;5051390;28;20056;-78
2023/02/09 03:36:20;;;;;;;16.48;8.07;;;;;;;;;;5052234;28;20495;-78
2023/02/09 03:38:47;;;;;;;18.67;7.90;;;;;;;;;;5035456;28;20132;-77
2023/02/09 03:41:13;;;;;;;16.13;7.43;;;;;;;;;;5040552;28;20119;-78
2023/02/09 03:46:24;;;;;;;18.15;8.40;;;;;;;;;;5026467;28;20109;-78
2023/02/09 03:48:52;;;;;;;20.60;7.75;;;;;;;;;;5023537;28;20054;-78
2023/02/09 03:51:18;;;;;;;15.00;7.30;;;;;;;;;;5042436;28;20049;-78
2023/02/09 03:53:46;;;;;;;17.10;7.28;;;;;;;;;;5047642;28;20073;-77
2023/02/09 03:56:12;;;;;;;15.77;7.40;;;;;;;;;;5046784;28;20049;-78
2023/02/09 03:58:39;;;;;;;15.38;6.75;;;;;;;;;;5047678;28;20328;-78
2023/02/09 04:01:08;;;;;;;18.55;8.30;;;;;;;;;;5047800;28;20076;-78
2023/02/09 04:03:36;;;;;;;19.30;6.90;;;;;;;;;;5048268;28;20099;-77
2023/02/09 04:06:04;;;;;;;16.08;7.55;;;;;;;;;;5036843;28;20042;-78
2023/02/09 04:08:32;;;;;;;18.48;8.07;;;;;;;;;;5027550;28;20084;-78
2023/02/09 04:10:59;;;;;;;17.30;7.47;;;;;;;;;;5042837;28;20045;-78
2023/02/09 04:13:26;;;;;;;15.73;7.72;;;;;;;;;;5033933;28;20045;-79
2023/02/09 04:15:53;;;;;;;18.20;7.43;;;;;;;;;;5048276;28;20084;-78
2023/02/09 04:18:20;;;;;;;15.60;7.00;;;;;;;;;;5050096;28;20041;-77
2023/02/09 04:20:47;;;;;;;15.65;6.97;;;;;;;;;;5048748;28;20072;-77
2023/02/09 04:23:15;;;;;;;16.67;7.55;;;;;;;;;;5047581;28;20053;-77
2023/02/09 04:25:41;;;;;;;19.58;7.78;;;;;;;;;;5044417;28;20081;-78
2023/02/09 04:28:08;;;;;;;20.25;8.95;;;;;;;;;;5038716;28;20103;-77
2023/02/09 04:30:37;;;;;;;18.40;7.63;;;;;;;;;;5038555;28;20042;-76
2023/02/09 04:33:03;;;;;;;19.42;9.20;;;;;;;;;;5036396;28;20128;-76
2023/02/09 04:35:30;;;;;;;16.92;7.70;;;;;;;;;;5036389;28;20067;-77
2023/02/09 04:37:57;;;;;;;18.92;7.90;;;;;;;;;;5036053;28;20619;-77
2023/02/09 04:40:25;;;;;;;18.00;9.30;;;;;;;;;;5035975;28;20052;-77
2023/02/09 04:42:51;;;;;;;18.33;8.20;;;;;;;;;;5035592;28;20077;-76
2023/02/09 04:45:18;;;;;;;19.08;8.82;;;;;;;;;;5036057;28;20042;-77
2023/02/09 04:47:45;;;;;;;16.35;8.90;;;;;;;;;;5035372;28;20128;-76
2023/02/09 04:50:11;;;;;;;24.10;10.30;;;;;;;;;;5037894;28;20144;-77
2023/02/09 04:52:39;;;;;;;24.20;10.82;;;;;;;;;;5038039;28;20136;-78
2023/02/09 04:55:06;;;;;;;21.60;11.20;;;;;;;;;;5044653;28;20056;-78
2023/02/09 05:00:18;;;;;;;21.30;10.50;;;;;;;;;;5039978;28;20056;-78
2023/02/09 05:02:45;;;;;;;25.10;12.82;;;;;;;;;;5039232;28;20129;-78
2023/02/09 05:05:11;;;;;;;25.42;11.18;;;;;;;;;;5035775;28;20084;-78
2023/02/09 05:07:38;;;;;;;24.15;11.25;;;;;;;;;;5023504;28;20069;-78
2023/02/09 05:10:06;;;;;;;29.10;12.57;;;;;;;;;;5038978;28;20045;-79
2023/02/09 05:12:34;;;;;;;30.27;13.57;;;;;;;;;;5038899;28;20076;-80
2023/02/09 05:15:01;;;;;;;26.15;11.55;;;;;;;;;;5039708;28;20125;-78
2023/02/09 05:17:27;;;;;;;24.90;11.98;;;;;;;;;;5037992;28;20073;-79
2023/02/09 05:19:54;;;;;;;29.65;13.10;;;;;;;;;;5037520;28;20091;-78
2023/02/09 05:22:21;;;;;;;28.60;13.20;;;;;;;;;;5035181;28;20092;-78
2023/02/09 05:24:47;;;;;;;24.92;12.15;;;;;;;;;;5035065;28;20128;-77
2023/02/09 05:27:14;;;;;;;27.10;12.10;;;;;;;;;;5038212;28;20092;-79
2023/02/09 05:29:42;;;;;;;28.02;13.07;;;;;;;;;;5036866;28;20045;-78
2023/02/09 05:32:09;;;;;;;26.10;12.35;;;;;;;;;;5037227;28;20132;-78
2023/02/09 05:34:36;;;;;;;28.48;14.00;;;;;;;;;;5039261;28;20148;-77
2023/02/09 05:37:03;;;;;;;29.70;14.00;;;;;;;;;;5037595;28;20049;-78
2023/02/09 05:39:29;;;;;;;27.95;13.30;;;;;;;;;;5039113;28;20129;-79
2023/02/09 05:44:42;;;;;;;32.13;14.27;;;;;;;;;;5037551;28;20100;-78
2023/02/09 05:47:09;;;;;;;31.88;15.73;;;;;;;;;;5038417;28;20081;-79
2023/02/09 05:49:36;;;;;;;30.73;15.02;;;;;;;;;;5039225;28;20077;-78
2023/02/09 05:52:02;;;;;;;36.25;16.27;;;;;;;;;;5038588;28;20081;-76
2023/02/09 05:54:29;;;;;;;34.05;16.40;;;;;;;;;;5033306;28;20496;-78
2023/02/09 05:56:56;;;;;;;34.88;15.57;;;;;;;;;;5033227;28;20133;-76
2023/02/09 05:59:23;;;;;;;32.63;15.75;;;;;;;;;;5033216;28;20072;-77
2023/02/09 06:01:51;;;;;;;35.03;15.60;;;;;;;;;;5032599;28;20041;-77
2023/02/09 06:04:18;;;;;;;35.65;18.13;;;;;;;;;;5032666;28;20517;-77
2023/02/09 06:06:44;;;;;;;40.20;17.10;;;;;;;;;;5033089;28;20044;-77
2023/02/09 06:09:11;;;;;;;37.22;16.92;;;;;;;;;;5083612;22;20374;-50
2023/02/09 06:11:38;;;;;;;37.00;16.20;;;;;;;;;;5050872;28;20049;-50
2023/02/09 06:14:05;;;;;;;36.00;16.65;;;;;;;;;;5042037;28;20052;-50
2023/02/09 06:16:32;;;;;;;42.17;17.90;;;;;;;;;;5050000;28;20103;-49
2023/02/09 06:19:00;;;;;;;37.35;16.67;;;;;;;;;;5053222;28;20094;-50
2023/02/09 06:21:28;;;;;;;36.08;16.65;;;;;;;;;;5039101;28;20494;-50
2023/02/09 06:23:55;;;;;;;36.70;17.92;;;;;;;;;;5032879;28;20545;-49
2023/02/09 06:26:21;;;;;;;45.13;17.83;;;;;;;;;;5041499;28;20049;-50
2023/02/09 06:28:48;;;;;;;37.00;17.35;;;;;;;;;;5033341;28;20111;-51
2023/02/09 06:31:15;;;;;;;34.85;17.90;;;;;;;;;;5043297;28;20052;-53
2023/02/09 06:33:42;;;;;;;38.78;17.23;;;;;;;;;;5052106;28;20378;-54
2023/02/09 06:36:10;;;;;;;35.45;17.35;;;;;;;;;;5049978;28;20060;-51
2023/02/09 06:38:38;;;;;;;45.78;20.80;;;;;;;;;;5043290;28;20053;-50
2023/02/09 06:41:05;;;;;;;47.38;19.48;;;;;;;;;;5033023;28;20076;-52
2023/02/09 06:43:32;;;;;;;48.63;19.60;;;;;;;;;;5041902;28;20053;-49
2023/02/09 06:46:05;;;;;;;48.40;21.10;;;;;;;;;;5050330;28;20049;-51
2023/02/09 06:48:32;;;;;;;37.55;18.00;;;;;;;;;;5047425;28;20045;-49
2023/02/09 06:50:59;;;;;;;47.17;21.08;;;;;;;;;;5041909;28;20061;-47
2023/02/09 06:53:27;;;;;;;45.92;20.27;;;;;;;;;;5037642;28;20470;-49
2023/02/09 06:55:59;;;;;;;48.40;20.30;;;;;;;;;;5052699;28;20049;-51
2023/02/09 06:58:26;;;;;;;44.40;20.23;;;;;;;;;;5040862;28;20045;-52
2023/02/09 07:00:53;;;;;;;48.47;20.58;;;;;;;;;;5032929;28;20111;-55
2023/02/09 07:03:20;;;;;;;55.45;21.73;;;;;;;;;;5035815;28;20090;-49
2023/02/09 07:05:46;;;;;;;52.33;21.90;;;;;;;;;;5043828;28;20050;-49
2023/02/09 07:08:13;;;;;;;42.30;20.02;;;;;;;;;;5042498;28;20045;-49
2023/02/09 07:10:41;;;;;;;42.70;20.17;;;;;;;;;;5052460;28;20049;-49
2023/02/09 07:13:08;;;;;;;45.28;19.23;;;;;;;;;;5051123;28;20053;-50
2023/02/09 07:15:35;;;;;;;50.38;20.60;;;;;;;;;;5037293;28;20490;-50
2023/02/09 07:18:02;;;;;;;33.00;17.17;;;;;;;;;;5040579;28;20048;-49
2023/02/09 07:20:29;;;;;;;38.25;16.02;;;;;;;;;;5032492;28;20139;-48
2023/02/09 07:22:55;;;;;;;38.15;17.73;;;;;;;;;;5032697;28;20127;-51
2023/02/09 07:25:22;;;;;;;40.00;16.70;;;;;;;;;;5032736;28;20053;-49
2023/02/09 07:27:50;;;;;;;33.22;15.55;;;;;;;;;;5034422;28;20053;-49
2023/02/09 07:30:17;;;;;;;36.72;17.92;;;;;;;;;;5047851;28;20620;-53
2023/02/09 07:32:44;;;;;;;42.55;18.15;;;;;;;;;;5052214;28;20049;-49
2023/02/09 07:35:11;;;;;;;40.25;18.95;;;;;;;;;;5052758;28;20063;-50
2023/02/09 07:37:38;;;;;;;38.38;18.27;;;;;;;;;;5051686;28;20041;-52
2023/02/09 07:40:05;;;;;;;45.20;19.27;;;;;;;;;;5044531;28;20045;-49
2023/02/09 07:42:32;;;;;;;38.70;17.50;;;;;;;;;;5049116;28;20411;-53
2023/02/09 07:45:00;;;;;;;39.05;16.73;;;;;;;;;;5044043;28;20041;-50
2023/02/09 07:47:26;;;;;;;38.30;16.77;;;;;;;;;;5049475;28;20053;-50
2023/02/09 07:49:53;;;;;;;38.55;17.38;;;;;;;;;;5034312;28;20049;-51
2023/02/09 07:52:21;;;;;;;37.88;17.58;;;;;;;;;;5037073;28;20440;-49
2023/02/09 07:54:49;;;;;;;34.92;16.48;;;;;;;;;;5053393;28;20576;-50
2023/02/09 07:57:16;;;;;;;33.38;16.48;;;;;;;;;;5051106;28;20049;-50
2023/02/09 07:59:43;;;;;;;38.47;16.92;;;;;;;;;;5049727;28;20095;-49
2023/02/09 08:02:16;;;;;;;38.20;16.73;;;;;;;;;;5044410;28;20057;-50
2023/02/09 08:04:43;;;;;;;36.03;16.67;;;;;;;;;;5036028;28;20049;-57
2023/02/09 08:07:10;;;;;;;38.33;17.08;;;;;;;;;;5034956;28;20093;-51
2023/02/09 08:09:37;;;;;;;37.60;16.10;;;;;;;;;;5047815;28;20052;-64
2023/02/09 08:12:07;;;;;;;32.72;16.75;;;;;;;;;;5049145;28;20046;-66
2023/02/09 08:14:41;;;;;;;33.97;14.63;;;;;;;;;;5043225;28;20050;-62
2023/02/09 08:17:22;;;;;;;32.17;13.88;;;;;;;;;;5037440;28;20076;-62
2023/02/09 08:19:54;;;;;;;27.60;13.38;;;;;;;;;;5033017;28;20057;-49
2023/02/09 08:22:23;;;;;;;31.27;14.13;;;;;;;;;;5047947;28;20471;-49
2023/02/09 08:24:50;;;;;;;27.63;13.90;;;;;;;;;;5043109;28;20494;-53
2023/02/09 08:27:17;;;;;;;32.83;14.05;;;;;;;;;;5042765;28;20131;-49
2023/02/09 08:29:43;;;;;;;31.38;15.90;;;;;;;;;;5046091;28;20099;-50
2023/02/09 08:32:10;;;;;;;31.83;15.65;;;;;;;;;;5036754;28;20525;-53
2023/02/09 08:34:37;;;;;;;34.83;16.38;;;;;;;;;;5044145;28;20568;-50
2023/02/09 08:37:05;;;;;;;35.97;17.13;;;;;;;;;;5037230;28;20072;-49
2023/02/09 08:39:32;;;;;;;39.47;16.77;;;;;;;;;;5040507;28;20049;-49
2023/02/09 08:41:59;;;;;;;34.40;15.48;;;;;;;;;;5052782;28;20045;-54
2023/02/09 08:44:25;;;;;;;31.17;14.85;;;;;;;;;;5053241;28;20061;-51
2023/02/09 08:46:52;;;;;;;32.15;16.98;;;;;;;;;;5046471;28;20060;-51
2023/02/09 08:49:19;;;;;;;39.53;16.75;;;;;;;;;;5033572;28;20049;-50
2023/02/09 08:51:46;;;;;;;39.00;16.75;;;;;;;;;;5033478;28;20076;-52
2023/02/09 08:54:14;;;;;;;31.35;14.15;;;;;;;;;;5033475;28;20045;-52
2023/02/09 08:56:43;;;;;;;31.90;14.05;;;;;;;;;;5035706;28;20060;-50
2023/02/09 08:59:09;;;;;;;24.88;12.68;;;;;;;;;;5052837;28;20128;-50
2023/02/09 09:01:38;;;;;;;37.10;14.80;;;;;;;;;;5050648;28;20052;-50
2023/02/09 09:04:05;;;;;;;25.42;12.73;;;;;;;;;;5052447;28;20054;-52
2023/02/09 09:06:32;;;;;;;27.05;12.30;;;;;;;;;;5038020;28;20107;-50
2023/02/09 09:08:59;;;;;;;35.38;13.70;;;;;;;;;;5051758;28;20053;-54
2023/02/09 09:11:28;;;;;;;27.38;13.57;;;;;;;;;;5052753;28;20049;-56
2023/02/09 09:13:55;;;;;;;25.00;12.73;;;;;;;;;;5052373;28;20472;-53
2023/02/09 09:16:22;;;;;;;28.77;13.98;;;;;;;;;;5052433;28;20045;-50
2023/02/09 09:18:50;;;;;;;25.63;13.75;;;;;;;;;;5034134;28;20418;-51
2023/02/09 09:21:18;;;;;;;25.90;12.27;;;;;;;;;;5032680;28;20415;-52
2023/02/09 09:23:46;;;;;;;28.65;13.18;;;;;;;;;;5048176;28;20041;-49
2023/02/09 09:26:13;;;;;;;26.08;12.63;;;;;;;;;;5052812;28;20049;-50
2023/02/09 09:28:41;;;;;;;25.48;11.88;;;;;;;;;;5033835;28;20045;-49
2023/02/09 09:31:09;;;;;;;27.75;13.02;;;;;;;;;;5048555;28;20049;-50
2023/02/09 09:33:36;;;;;;;26.85;12.27;;;;;;;;;;5034999;28;20050;-52
2023/02/09 09:36:04;;;;;;;22.90;11.27;;;;;;;;;;5045761;28;20103;-50
2023/02/09 09:38:33;;;;;;;24.67;12.10;;;;;;;;;;5040423;28;20095;-50
2023/02/09 09:40:59;;;;;;;28.33;12.50;;;;;;;;;;5046362;28;20452;-51
2023/02/09 09:43:31;;;;;;;29.20;14.50;;;;;;;;;;5051586;28;20053;-50
2023/02/09 09:46:00;;;;;;;32.67;14.18;;;;;;;;;;5037601;28;20057;-51
2023/02/09 09:48:31;;;;;;;23.90;13.02;;;;;;;;;;5031158;28;20053;-50
2023/02/09 09:51:03;;;;;;;29.75;13.93;;;;;;;;;;5032638;28;20473;-53
2023/02/09 09:53:33;;;;;;;30.75;13.45;;;;;;;;;;5031479;28;20053;-51
2023/02/09 09:56:04;;;;;;;28.98;13.45;;;;;;;;;;5043348;28;20092;-51
2023/02/09 09:58:32;;;;;;;30.08;13.60;;;;;;;;;;5051530;28;20053;-51
2023/02/09 10:01:00;;;;;;;29.77;13.02;;;;;;;;;;5039652;28;20057;-52
2023/02/09 10:03:27;;;;;;;23.85;11.63;;;;;;;;;;5032694;28;20114;-50
2023/02/09 10:05:56;;;;;;;27.25;12.68;;;;;;;;;;5043016;28;20053;-53
2023/02/09 10:08:29;;;;;;;24.83;11.32;;;;;;;;;;5047427;28;20521;-54
2023/02/09 10:10:59;;;;;;;19.65;10.05;;;;;;;;;;5048093;28;20045;-49
2023/02/09 10:13:31;;;;;;;23.92;11.13;;;;;;;;;;5050037;28;20102;-51
2023/02/09 10:15:59;;;;;;;25.42;11.35;;;;;;;;;;5050187;28;20486;-54
2023/02/09 10:18:28;;;;;;;25.80;12.02;;;;;;;;;;5040697;28;20555;-53
2023/02/09 10:21:01;;;;;;;23.02;10.43;;;;;;;;;;5036851;28;20136;-52
2023/02/09 10:23:37;;;;;;;24.25;10.98;;;;;;;;;;5038321;28;20045;-51
2023/02/09 10:26:16;;;;;;;20.02;9.07;;;;;;;;;;5045240;28;20099;-53
2023/02/09 10:28:46;;;;;;;23.00;9.90;;;;;;;;;;5033921;28;20578;-51
2023/02/09 10:31:22;;;;;;;18.98;8.63;;;;;;;;;;5031835;28;20676;-50
2023/02/09 10:33:55;;;;;;;17.83;7.70;;;;;;;;;;5030976;28;20745;-51
2023/02/09 10:36:28;;;;;;;15.98;8.15;;;;;;;;;;5032833;28;20049;-50
2023/02/09 10:39:10;;;;;;;21.00;8.98;;;;;;;;;;5051064;28;20048;-49
2023/02/09 10:41:40;;;;;;;23.15;9.88;;;;;;;;;;5049764;28;20539;-53
2023/02/09 10:44:14;;;;;;;19.60;8.52;;;;;;;;;;5041848;28;20069;-51
2023/02/09 10:46:42;;;;;;;15.10;8.45;;;;;;;;;;5042645;28;20575;-51
2023/02/09 10:49:29;;;;;;;18.40;7.95;;;;;;;;;;5038005;28;20053;-48
2023/02/09 10:52:18;;;;;;;20.98;9.75;;;;;;;;;;5050172;28;20052;-62
2023/02/09 10:54:49;;;;;;;18.25;9.13;;;;;;;;;;5049135;28;20088;-52
2023/02/09 10:57:25;;;;;;;;;;;;;;;;;;5050072;28;20072;-50
2023/02/09 10:59:53;;;;;;;14.85;7.60;;;;;;;;;;5049941;28;19921;-53
2023/02/09 11:02:34;;;;;;;20.13;8.23;;;;;;;;;;5045838;28;20068;-51
2023/02/09 11:05:01;;;;;;;21.08;9.10;;;;;;;;;;5031212;28;20108;-50
2023/02/09 11:07:33;;;;;;;20.15;9.63;;;;;;;;;;5038435;28;20042;-50
2023/02/09 11:10:02;;;;;;;18.48;7.43;;;;;;;;;;5030688;28;20097;-51
2023/02/09 11:12:29;;;;;;;16.52;7.63;;;;;;;;;;5038853;28;20094;-51
2023/02/09 11:14:56;;;;;;;16.58;7.88;;;;;;;;;;5048141;28;20048;-53
2023/02/09 11:17:26;;;;;;;18.83;8.88;;;;;;;;;;5047692;28;20049;-51
2023/02/09 11:20:17;;;;;;;;;;;;;;;;;;5037979;28;20118;-51
2023/02/09 11:23:08;;;;;;;13.52;7.70;;;;;;;;;;5034515;28;20413;-51
2023/02/09 11:25:39;;;;;;;15.40;7.88;;;;;;;;;;5049969;28;20099;-52
2023/02/09 11:28:15;;;;;;;;;;;;;;;;;;5051557;28;20045;-54
2023/02/09 11:31:03;;;;;;;20.42;9.10;;;;;;;;;;5050754;28;19928;-55
2023/02/09 11:33:39;;;;;;;18.55;8.73;;;;;;;;;;5050077;28;20052;-53
2023/02/09 11:36:19;;;;;;;17.50;8.30;;;;;;;;;;5050134;28;20211;-53
2023/02/09 11:38:51;;;;;;;17.75;8.48;;;;;;;;;;5050241;28;20053;-53
2023/02/09 11:44:16;;;;;;;25.13;9.65;;;;;;;;;;5049934;28;20052;-53
2023/02/09 11:46:44;;;;;;;20.77;9.85;;;;;;;;;;5049907;28;20053;-53
2023/02/09 11:49:18;;;;;;;19.52;8.90;;;;;;;;;;5049969;28;20114;-54
2023/02/09 11:51:50;;;;;;;20.63;9.07;;;;;;;;;;5049987;28;20044;-55
2023/02/09 11:54:20;;;;;;;20.23;9.48;;;;;;;;;;5049626;28;20049;-54
2023/02/09 11:56:50;;;;;;;19.65;9.05;;;;;;;;;;5049969;28;20391;-53
2023/02/09 11:59:22;;;;;;;18.77;9.98;;;;;;;;;;5050030;28;20663;-56
2023/02/09 12:01:57;;;;;;;19.45;8.65;;;;;;;;;;5049541;28;20049;-52
2023/02/09 12:04:31;;;;;;;21.90;8.93;;;;;;;;;;5049790;28;20099;-54
2023/02/09 12:07:02;;;;;;;19.75;9.38;;;;;;;;;;5049812;28;20049;-55
2023/02/09 12:09:45;;;;;;;20.50;9.18;;;;;;;;;;5049529;28;20091;-56
2023/02/09 12:12:21;;;;;;;22.88;9.93;;;;;;;;;;5049542;28;20057;-56
2023/02/09 12:14:57;;;;;;;21.15;9.48;;;;;;;;;;5049585;28;20060;-48
2023/02/09 12:17:31;;;;;;;19.65;9.40;;;;;;;;;;5037698;28;20049;-47
2023/02/09 12:19:59;;;;;;;22.35;9.43;;;;;;;;;;5043477;28;20057;-49
2023/02/09 12:22:59;;;;;;;19.45;9.80;;;;;;;;;;5041301;28;20676;-50
2023/02/09 12:25:50;;;;;;;17.08;9.20;;;;;;;;;;5038903;28;20053;-48
2023/02/09 12:28:32;;;;;;;20.50;9.77;;;;;;;;;;5029706;28;20053;-48
2023/02/09 12:31:06;;;;;;;18.98;9.82;;;;;;;;;;5029818;28;20057;-47
2023/02/09 12:33:36;;;;;;;20.40;9.65;;;;;;;;;;5042344;28;20048;-48
2023/02/09 12:36:06;;;;;;;18.88;9.68;;;;;;;;;;5049262;28;20049;-49
2023/02/09 12:38:59;;;;;;;23.50;11.25;;;;;;;;;;5050664;28;20538;-48
2023/02/09 12:41:28;;;;;;;21.75;10.52;;;;;;;;;;5040517;28;20448;-47
2023/02/09 12:44:25;;;;;;;23.17;11.52;;;;;;;;;;5036910;28;20503;-49
2023/02/09 12:46:55;;;;;;;22.45;10.40;;;;;;;;;;5048864;28;20044;-50
2023/02/09 12:49:32;;;;;;;24.55;11.85;;;;;;;;;;5039986;28;20103;-50
2023/02/09 12:52:15;;;;;;;25.20;11.48;;;;;;;;;;5036538;28;20505;-52
2023/02/09 12:54:46;;;;;;;31.20;13.63;;;;;;;;;;5033584;28;20069;-48
2023/02/09 12:57:53;;;;;;;25.73;13.02;;;;;;;;;;5033320;28;20056;-53
2023/02/09 13:00:39;;;;;;;26.90;12.43;;;;;;;;;;5032963;28;20493;-51
2023/02/09 13:03:12;;;;;;;24.10;12.70;;;;;;;;;;5043858;28;20049;-51
2023/02/09 13:05:44;;;;;;;23.27;11.50;;;;;;;;;;5044892;28;20053;-50
2023/02/09 13:08:20;;;;;;;24.85;12.43;;;;;;;;;;5043848;28;20049;-50
2023/02/09 13:10:59;;;;;;;22.73;11.38;;;;;;;;;;5052658;28;20399;-50
2023/02/09 13:13:37;;;;;;;23.48;11.60;;;;;;;;;;5038676;28;20045;-50
2023/02/09 13:16:23;;;;;;;24.50;13.02;;;;;;;;;;5032121;28;20045;-49
2023/02/09 13:18:58;;;;;;;20.55;10.77;;;;;;;;;;5034830;28;20100;-48
2023/02/09 13:21:34;;;;;;;22.95;12.05;;;;;;;;;;5032377;28;20053;-48
2023/02/09 13:24:03;;;;;;;23.65;12.23;;;;;;;;;;5050585;28;20053;-51
2023/02/09 13:26:33;;;;;;;21.45;11.18;;;;;;;;;;5052288;28;20049;-49
2023/02/09 13:29:07;;;;;;;24.45;12.30;;;;;;;;;;5039137;28;20057;-51
2023/02/09 13:31:36;;;;;;;22.65;10.93;;;;;;;;;;5031665;28;20465;-48
2023/02/09 13:34:17;;;;;;;21.40;11.52;;;;;;;;;;5048822;28;20049;-48
2023/02/09 13:36:49;;;;;;;22.48;11.75;;;;;;;;;;5043244;28;20049;-50
2023/02/09 13:42:30;;;;;;;22.33;12.02;;;;;;;;;;5040818;28;20056;-48
2023/02/09 13:44:58;;;;;;;29.40;13.18;;;;;;;;;;5051458;28;20049;-48
2023/02/09 13:47:26;;;;;;;26.52;12.90;;;;;;;;;;5051815;28;20049;-50
2023/02/09 13:49:57;;;;;;;28.17;13.35;;;;;;;;;;5039197;28;20060;-50
2023/02/09 13:52:25;;;;;;;24.98;12.60;;;;;;;;;;5031274;28;20131;-49
2023/02/09 13:54:52;;;;;;;27.30;13.27;;;;;;;;;;5042290;28;20052;-50
2023/02/09 13:57:40;;;;;;;28.65;13.75;;;;;;;;;;5051620;28;20049;-48
2023/02/09 14:00:14;;;;;;;29.63;13.27;;;;;;;;;;5050057;28;20053;-49
2023/02/09 14:02:46;;;;;;;22.88;12.13;;;;;;;;;;5051386;28;20052;-49
2023/02/09 14:05:29;;;;;;;26.15;13.60;;;;;;;;;;5043763;28;20052;-48
2023/02/09 14:07:56;;;;;;;24.75;12.30;;;;;;;;;;5051395;28;20118;-50
2023/02/09 14:10:24;;;;;;;22.65;12.20;;;;;;;;;;5049862;28;20082;-49
2023/02/09 14:12:59;;;;;;;23.55;11.38;;;;;;;;;;5032457;28;20126;-49
2023/02/09 14:18:38;;;;;;;;;;;;;;;;;;5032096;28;20061;-48
2023/02/09 14:21:16;;;;;;;23.63;12.18;;;;;;;;;;5047478;28;19934;-49
2023/02/09 14:23:45;;;;;;;22.05;11.00;;;;;;;;;;5051368;28;20049;-51
2023/02/09 14:29:37;;;;;;;24.45;11.05;;;;;;;;;;5042366;28;20094;-48
2023/02/09 14:32:21;;;;;;;25.73;12.52;;;;;;;;;;5031144;28;20076;-51
2023/02/09 14:34:50;;;;;;;22.25;11.55;;;;;;;;;;5036871;28;20127;-48
2023/02/09 14:37:29;;;;;;;21.30;11.32;;;;;;;;;;5051691;28;20052;-50
2023/02/09 14:39:59;;;;;;;22.17;12.40;;;;;;;;;;5045208;28;20052;-48
2023/02/09 14:42:27;;;;;;;28.13;12.80;;;;;;;;;;5045345;28;20121;-49
2023/02/09 14:44:57;;;;;;;24.05;12.25;;;;;;;;;;5046151;28;20415;-48
2023/02/09 14:47:30;;;;;;;25.48;12.40;;;;;;;;;;5030994;28;20045;-48
2023/02/09 14:49:57;;;;;;;25.90;12.70;;;;;;;;;;5036119;28;20084;-50
2023/02/09 14:52:28;;;;;;;26.92;12.15;;;;;;;;;;5050895;28;20132;-49
2023/02/09 14:54:57;;;;;;;26.80;12.73;;;;;;;;;;5046828;28;20288;-49
2023/02/09 14:57:26;;;;;;;25.45;11.98;;;;;;;;;;5030391;28;20120;-48
2023/02/09 14:59:56;;;;;;;25.42;13.25;;;;;;;;;;5031610;28;20364;-48
2023/02/09 15:02:26;;;;;;;28.10;12.63;;;;;;;;;;5038829;28;20485;-51
2023/02/09 15:04:53;;;;;;;24.38;12.27;;;;;;;;;;5033215;28;20051;-49
2023/02/09 15:07:23;;;;;;;23.85;13.15;;;;;;;;;;5051327;28;20052;-50